Time;durP1;ratioP1;P1;durP2;ratioP2;P2;SDS_P1;SDS_P2;PMS_P1;PMS_P2;Temp;Humidity;BMP_temperature;BMP_pressure;BME280_temperature;BME280_humidity;BME280_pressure;Samples;Min_cycle;Max_cycle;Signal;HPM_P1;HPM_P2
2022/04/20 00:01:22;;;;;;;0.00;0.00;;;;;;;10.44;51.42;101628.72;10416116;28;20085;-80
2022/04/20 00:06:24;;;;;;;0.00;0.00;;;;;;;10.46;51.60;101634.81;10416048;28;20052;-79
2022/04/20 00:11:25;;;;;;;0.00;0.00;;;;;;;10.21;51.87;101632.94;10442834;28;20151;-79
2022/04/20 00:16:27;;;;;;;0.00;0.00;;;;;;;9.64;54.37;101629.00;10434633;28;20069;-79
2022/04/20 00:21:29;;;;;;;0.00;0.00;;;;;;;9.33;55.00;101627.69;10423520;28;20053;-79
2022/04/20 00:26:30;;;;;;;0.00;0.00;;;;;;;9.35;54.87;101620.91;10420328;28;20136;-79
2022/04/20 00:31:32;;;;;;;0.00;0.00;;;;;;;9.43;54.45;101629.81;10436634;28;20049;-80
2022/04/20 00:36:34;;;;;;;0.00;0.00;;;;;;;9.37;54.51;101624.44;10434286;28;20046;-79
2022/04/20 00:41:35;;;;;;;0.00;0.00;;;;;;;9.39;54.00;101635.66;10426536;28;20052;-79
2022/04/20 00:46:38;;;;;;;0.00;0.00;;;;;;;9.23;54.55;101620.38;10416119;28;20049;-80
2022/04/20 00:51:58;;;;;;;0.00;0.00;;;;;;;9.13;54.29;101637.97;10427737;28;20044;-79
2022/04/20 00:57:01;;;;;;;0.00;0.00;;;;;;;9.12;54.62;101643.94;10424629;28;20128;-78
2022/04/20 01:02:05;;;;;;;0.00;0.00;;;;;;;9.10;54.12;101636.97;10443148;28;20500;-79
2022/04/20 01:07:12;;;;;;;0.00;0.00;;;;;;;8.53;58.74;101651.59;10444305;28;20071;-79
2022/04/20 01:12:35;;;;;;;0.00;0.00;;;;;;;8.70;56.34;101643.78;10411608;28;20132;-79
2022/04/20 01:17:53;;;;;;;0.00;0.00;;;;;;;8.66;56.43;101642.75;10442565;28;20049;-79
2022/04/20 01:23:12;;;;;;;0.00;0.00;;;;;;;8.63;56.66;101645.22;10445241;28;20067;-78
2022/04/20 01:28:21;;;;;;;0.00;0.00;;;;;;;8.55;56.78;101644.84;10411379;28;20136;-79
2022/04/20 01:33:38;;;;;;;0.00;0.00;;;;;;;8.80;54.95;101640.84;10442450;28;20060;-78
2022/04/20 01:38:40;;;;;;;0.00;0.00;;;;;;;8.99;53.95;101644.22;10432450;28;20049;-79
2022/04/20 01:43:42;;;;;;;0.00;0.00;;;;;;;8.59;54.30;101645.00;10421348;28;20048;-78
2022/04/20 01:48:51;;;;;;;0.00;0.00;;;;;;;8.47;55.37;101648.75;10415151;28;20033;-79
2022/04/20 01:54:15;;;;;;;0.00;0.00;;;;;;;8.57;54.99;101639.78;10415250;28;20053;-79
2022/04/20 01:59:26;;;;;;;0.00;0.00;;;;;;;8.14;56.32;101646.34;10411303;28;20160;-79
2022/04/20 02:04:37;;;;;;;0.00;0.00;;;;;;;8.02;56.91;101640.59;10417065;28;20501;-80
2022/04/20 02:09:39;;;;;;;0.00;0.00;;;;;;;8.01;57.74;101639.72;10441165;28;20045;-80
2022/04/20 02:14:47;;;;;;;0.00;0.00;;;;;;;8.05;56.97;101651.88;10409104;28;20055;-78
2022/04/20 02:20:09;;;;;;;0.00;0.00;;;;;;;8.04;56.81;101644.13;10417248;28;20064;-79
2022/04/20 02:25:12;;;;;;;0.00;0.00;;;;;;;8.33;55.44;101642.06;10445887;28;20041;-78
2022/04/20 02:30:14;;;;;;;0.00;0.00;;;;;;;8.13;55.72;101648.81;10408769;28;20052;-78
2022/04/20 02:35:15;;;;;;;0.00;0.00;;;;;;;7.72;59.04;101648.56;10412917;28;20045;-79
2022/04/20 02:40:17;;;;;;;0.00;0.00;;;;;;;8.15;54.94;101653.22;10437465;28;20041;-78
2022/04/20 02:45:19;;;;;;;0.00;0.00;;;;;;;7.56;57.39;101655.47;10430388;28;20040;-78
2022/04/20 02:50:21;;;;;;;0.00;0.00;;;;;;;7.40;58.48;101663.22;10439449;28;20038;-79
2022/04/20 02:55:24;;;;;;;0.00;0.00;;;;;;;7.96;56.20;101665.97;10396146;28;20053;-79
2022/04/20 03:00:26;;;;;;;0.00;0.00;;;;;;;6.99;59.41;101663.69;10408721;28;20045;-79
2022/04/20 03:05:39;;;;;;;0.00;0.00;;;;;;;7.47;56.83;101649.91;10424520;28;20279;-80
2022/04/20 03:10:41;;;;;;;0.00;0.00;;;;;;;7.49;56.12;101653.41;10438865;28;20558;-79
2022/04/20 03:15:45;;;;;;;0.00;0.00;;;;;;;7.75;55.65;101656.41;10427997;28;20500;-78
2022/04/20 03:20:46;;;;;;;0.65;0.65;;;;;;;7.81;55.02;101655.84;10426370;28;20049;-78
2022/04/20 03:25:48;;;;;;;0.00;0.00;;;;;;;7.78;55.58;101659.13;10452781;28;20041;-78
2022/04/20 03:31:09;;;;;;;;;;;;;;;7.75;54.84;101666.66;10458555;28;20347;-79
2022/04/20 03:36:11;;;;;;;0.10;0.10;;;;;;;7.83;55.19;101674.72;10443767;28;20490;-78
2022/04/20 03:41:13;;;;;;;0.00;0.00;;;;;;;7.97;54.63;101672.84;10426056;28;20045;-78
2022/04/20 03:46:15;;;;;;;0.00;0.00;;;;;;;7.75;54.75;101680.38;10422226;28;20056;-78
2022/04/20 03:51:16;;;;;;;0.00;0.00;;;;;;;7.82;53.86;101679.00;10455415;28;20554;-78
2022/04/20 03:56:21;;;;;;;0.00;0.00;;;;;;;7.85;53.74;101686.84;10431175;28;20046;-79
2022/04/20 04:01:23;;;;;;;0.00;0.00;;;;;;;7.72;54.22;101692.16;10429656;28;20070;-79
2022/04/20 04:06:27;;;;;;;0.00;0.00;;;;;;;7.44;54.68;101693.31;10446567;28;20489;-79
2022/04/20 04:11:29;;;;;;;0.00;0.00;;;;;;;7.40;55.56;101692.28;10411540;28;20096;-79
2022/04/20 04:16:36;;;;;;;0.00;0.00;;;;;;;7.39;55.02;101692.22;10419640;28;20056;-79
2022/04/20 04:21:39;;;;;;;0.00;0.00;;;;;;;7.28;55.08;101700.22;10429442;28;20508;-80
2022/04/20 04:26:41;;;;;;;0.00;0.00;;;;;;;7.49;54.92;101694.44;10422031;28;20107;-80
2022/04/20 04:31:45;;;;;;;0.00;0.00;;;;;;;7.18;56.29;101697.09;10436862;28;20052;-80
2022/04/20 04:36:48;;;;;;;0.00;0.00;;;;;;;7.38;54.78;101705.84;10429432;28;20132;-80
2022/04/20 04:41:51;;;;;;;0.28;0.28;;;;;;;7.53;54.29;101706.63;10413111;28;20050;-79
2022/04/20 04:52:40;;;;;;;0.00;0.00;;;;;;;7.68;54.24;101713.34;10438895;28;20057;-80
2022/04/20 04:57:45;;;;;;;0.00;0.00;;;;;;;7.33;54.93;101717.53;10419448;28;20051;-79
2022/04/20 05:02:46;;;;;;;0.00;0.00;;;;;;;7.69;53.90;101717.66;10421866;28;20474;-79
2022/04/20 05:07:54;;;;;;;0.00;0.00;;;;;;;7.60;53.84;101718.97;10451910;28;20128;-79
2022/04/20 05:12:58;;;;;;;0.00;0.00;;;;;;;7.63;53.70;101724.22;10402380;28;20049;-79
2022/04/20 05:18:01;;;;;;;0.00;0.00;;;;;;;7.68;53.50;101718.47;10413003;28;20041;-79
2022/04/20 05:23:06;;;;;;;0.00;0.00;;;;;;;7.85;53.52;101715.06;10420766;28;20461;-79
2022/04/20 05:28:09;;;;;;;0.00;0.00;;;;;;;7.90;53.87;101708.47;10434803;28;20600;-79
2022/04/20 05:33:12;;;;;;;0.00;0.00;;;;;;;8.12;52.69;101719.81;10435857;28;20143;-79
2022/04/20 05:43:37;;;;;;;0.00;0.00;;;;;;;8.45;53.90;101718.78;10406604;28;20033;-79
2022/04/20 05:48:39;;;;;;;0.00;0.00;;;;;;;8.36;52.31;101719.25;10409364;28;20500;-79
2022/04/20 05:53:58;;;;;;;0.22;0.22;;;;;;;8.21;53.33;101720.25;10553363;27;20576;-77
2022/04/20 05:59:03;;;;;;;0.00;0.00;;;;;;;8.56;53.17;101718.53;10554007;28;20052;-78
2022/04/20 06:04:06;;;;;;;0.00;0.00;;;;;;;8.73;53.98;101715.88;10564168;27;20209;-78
2022/04/20 06:09:08;;;;;;;0.30;0.30;;;;;;;8.87;53.50;101724.19;10528467;28;20056;-77
2022/04/20 06:14:30;;;;;;;0.00;0.00;;;;;;;9.41;54.22;101713.78;10516086;28;20062;-78
2022/04/20 06:19:41;;;;;;;0.00;0.00;;;;;;;9.36;52.01;101716.16;10527995;28;20495;-78
2022/04/20 06:24:48;;;;;;;0.00;0.00;;;;;;;9.74;53.52;101704.88;10539345;28;20059;-78
2022/04/20 06:30:03;;;;;;;23.10;12.02;;;;;;;9.60;52.72;101707.75;10535417;28;20138;-78
2022/04/20 06:35:28;;;;;;;0.00;0.00;;;;;;;10.35;53.08;101698.75;10521787;28;20052;-79
2022/04/20 06:40:45;;;;;;;0.00;0.00;;;;;;;10.26;51.44;101704.44;10524600;28;20050;-79
2022/04/20 06:46:05;;;;;;;0.00;0.00;;;;;;;10.99;49.72;101704.63;10536318;28;20048;-80
2022/04/20 06:58:31;;;;;;;0.00;0.00;;;;;;;11.26;50.18;101704.78;10556513;28;20109;-80
2022/04/20 07:02:28;;;;;;;0.00;0.00;;;;;;;11.97;47.94;101696.03;10535790;28;20044;-80
2022/04/20 07:07:50;;;;;;;0.38;0.38;;;;;;;12.02;47.52;101699.66;10515118;28;20433;-78
2022/04/20 07:13:19;;;;;;;0.20;0.20;;;;;;;12.27;46.95;101705.59;10496208;28;20410;-78
2022/04/20 07:18:23;;;;;;;0.00;0.00;;;;;;;12.52;45.88;101708.97;10495595;28;20044;-80
2022/04/20 07:23:34;;;;;;;0.00;0.00;;;;;;;12.95;46.05;101707.66;10495700;28;20056;-79
2022/04/20 07:28:49;;;;;;;0.00;0.00;;;;;;;13.66;43.70;101702.72;10488836;28;20434;-80
2022/04/20 07:34:15;;;;;;;0.00;0.00;;;;;;;13.85;45.46;101717.88;10481165;28;20431;-79
2022/04/20 07:39:49;;;;;;;0.00;0.00;;;;;;;14.48;43.25;101718.53;10514463;28;20368;-80
2022/04/20 07:45:10;;;;;;;0.00;0.00;;;;;;;14.67;42.76;101724.13;10530629;28;20040;-81
2022/04/20 07:50:39;;;;;;;0.35;0.35;;;;;;;15.05;41.72;101717.16;10518510;28;20173;-80
2022/04/20 07:55:47;;;;;;;0.10;0.10;;;;;;;14.38;42.34;101732.09;10503890;28;20380;-75
2022/04/20 08:01:14;;;;;;;0.00;0.00;;;;;;;14.96;41.23;101734.28;10509002;28;20503;-75
2022/04/20 08:06:46;;;;;;;0.00;0.00;;;;;;;15.59;40.32;101729.47;10516528;28;20505;-76
2022/04/20 08:11:47;;;;;;;0.00;0.00;;;;;;;16.13;41.58;101717.41;10521523;28;20449;-75
2022/04/20 08:16:52;;;;;;;0.00;0.00;;;;;;;16.20;39.08;101726.16;10537193;28;20069;-76
2022/04/20 08:22:04;;;;;;;0.00;0.00;;;;;;;15.71;39.85;101734.88;10519272;28;20079;-76
2022/04/20 08:27:05;;;;;;;0.10;0.10;;;;;;;15.55;39.28;101738.91;10517192;28;20044;-77
2022/04/20 08:32:07;;;;;;;0.00;0.00;;;;;;;17.47;36.42;101738.25;10527701;28;20040;-76
2022/04/20 08:37:10;;;;;;;0.20;0.20;;;;;;;16.93;37.01;101738.53;10506111;28;20523;-76
2022/04/20 08:42:12;;;;;;;0.00;0.00;;;;;;;17.87;36.74;101730.84;10527065;28;20085;-76
2022/04/20 08:47:19;;;;;;;1.00;0.45;;;;;;;16.95;37.34;101736.81;10517366;28;20052;-77
2022/04/20 08:52:39;;;;;;;0.00;0.00;;;;;;;18.19;36.83;101720.72;10504156;28;20047;-76
2022/04/20 08:57:45;;;;;;;0.35;0.15;;;;;;;17.15;36.84;101738.78;10495368;28;20040;-77
2022/04/20 09:02:50;;;;;;;0.00;0.00;;;;;;;17.26;35.54;101729.38;10516239;28;20119;-77
2022/04/20 09:07:52;;;;;;;0.05;0.05;;;;;;;19.29;35.53;101721.28;10488578;28;20048;-76
2022/04/20 09:13:03;;;;;;;0.00;0.00;;;;;;;18.92;34.50;101725.50;10490551;28;20103;-77
2022/04/20 09:18:07;;;;;;;0.10;0.10;;;;;;;19.23;32.09;101716.06;10492067;28;20055;-79
2022/04/20 09:23:29;;;;;;;0.15;0.05;;;;;;;18.91;31.90;101708.94;10496753;28;20048;-76
2022/04/20 09:28:30;;;;;;;0.00;0.00;;;;;;;19.80;34.01;101710.03;10489072;28;20101;-76
2022/04/20 09:33:43;;;;;;;0.17;0.13;;;;;;;19.24;31.49;101702.13;10487867;28;20048;-77
2022/04/20 09:39:03;;;;;;;0.25;0.25;;;;;;;19.03;35.52;101693.34;10501579;28;20040;-77
2022/04/20 09:44:12;;;;;;;0.00;0.00;;;;;;;18.43;33.19;101694.78;10500698;28;20068;-76
2022/04/20 09:49:13;;;;;;;3.83;0.57;;;;;;;19.85;32.49;101682.16;10498226;28;20035;-78
2022/04/20 09:54:26;;;;;;;0.03;0.03;;;;;;;19.43;31.50;101689.09;10510217;28;20044;-78
2022/04/20 09:59:27;;;;;;;0.38;0.10;;;;;;;18.77;32.13;101679.28;10492714;28;20052;-75
2022/04/20 10:04:29;;;;;;;0.00;0.00;;;;;;;18.10;34.69;101696.31;10504261;28;20431;-76
2022/04/20 10:09:32;;;;;;;0.00;0.00;;;;;;;18.74;33.06;101684.50;10497348;28;20044;-75
2022/04/20 10:19:59;;;;;;;0.00;0.00;;;;;;;20.15;34.85;101675.16;10487364;28;20044;-76
2022/04/20 10:25:01;;;;;;;0.00;0.00;;;;;;;18.56;34.26;101675.72;10471963;28;20483;-75
2022/04/20 10:30:11;;;;;;;0.00;0.00;;;;;;;18.77;36.37;101669.72;10488276;28;20062;-75
2022/04/20 10:35:13;;;;;;;0.00;0.00;;;;;;;19.91;32.32;101658.66;10488336;28;20044;-75
2022/04/20 10:40:33;;;;;;;0.00;0.00;;;;;;;20.01;32.20;101658.63;10499139;28;20040;-76
2022/04/20 10:46:05;;;;;;;0.00;0.00;;;;;;;19.95;31.72;101647.31;10495174;28;20048;-78
2022/04/20 10:51:30;;;;;;;0.00;0.00;;;;;;;19.25;35.72;101635.94;10485862;28;20039;-78
2022/04/20 10:56:31;;;;;;;0.50;0.28;;;;;;;18.15;35.88;101632.91;10492674;28;20048;-78
2022/04/20 11:02:02;;;;;;;0.00;0.00;;;;;;;19.01;32.76;101614.16;10495634;28;20408;-77
2022/04/20 11:07:06;;;;;;;0.00;0.00;;;;;;;21.21;31.62;101611.03;10481504;28;20052;-78
2022/04/20 11:23:06;;;;;;;0.17;0.08;;;;;;;19.23;30.55;101615.91;10522907;28;20044;-76
2022/04/20 11:28:08;;;;;;;0.00;0.00;;;;;;;19.00;32.66;101603.69;10501327;28;20045;-76
2022/04/20 11:33:14;;;;;;;0.00;0.00;;;;;;;19.58;33.72;101600.25;10522518;28;20040;-75
2022/04/20 11:38:16;;;;;;;0.00;0.00;;;;;;;21.01;32.83;101587.59;10519344;28;20051;-76
2022/04/20 11:43:25;;;;;;;0.00;0.00;;;;;;;20.59;32.48;101579.09;10501602;28;20052;-76
2022/04/20 11:48:53;;;;;;;0.10;0.10;;;;;;;18.96;34.10;101576.69;10515616;28;20472;-75
2022/04/20 11:53:56;;;;;;;0.00;0.00;;;;;;;18.91;35.88;101583.63;10514164;28;20412;-75
2022/04/20 11:59:13;;;;;;;0.00;0.00;;;;;;;20.38;32.13;101574.81;10491569;28;20066;-76
2022/04/20 12:04:18;;;;;;;0.10;0.10;;;;;;;19.36;31.87;101580.22;10492742;28;20044;-78
2022/04/20 12:09:31;;;;;;;0.00;0.00;;;;;;;19.81;33.56;101574.06;10507879;28;20152;-76
2022/04/20 12:14:34;;;;;;;0.00;0.00;;;;;;;20.79;31.67;101558.06;10493369;28;20480;-76
2022/04/20 12:19:38;;;;;;;0.00;0.00;;;;;;;20.36;34.37;101558.25;10491329;28;20114;-74
2022/04/20 12:24:42;;;;;;;0.00;0.00;;;;;;;19.95;33.20;101561.00;10491700;28;20479;-75
2022/04/20 12:29:56;;;;;;;23.38;21.08;;;;;;;18.81;35.64;101556.63;10487497;28;20041;-75
2022/04/20 12:35:05;;;;;;;0.00;0.00;;;;;;;19.66;32.77;101546.22;10491709;28;20123;-75
2022/04/20 12:40:22;;;;;;;0.10;0.10;;;;;;;20.60;30.94;101537.19;10482357;28;20054;-77
2022/04/20 12:45:24;;;;;;;3.20;0.43;;;;;;;18.84;33.42;101547.94;10510011;28;20499;-76
2022/04/20 12:50:33;;;;;;;0.00;0.00;;;;;;;19.59;31.44;101534.03;10493430;28;20086;-76
2022/04/20 13:06:47;;;;;;;0.08;0.03;;;;;;;19.43;32.62;101519.25;10486154;28;20044;-75
2022/04/20 13:11:48;;;;;;;0.00;0.00;;;;;;;19.31;33.63;101510.56;10489746;28;20058;-74
2022/04/20 13:16:50;;;;;;;0.00;0.00;;;;;;;19.37;34.31;101509.66;10490158;28;20044;-74
2022/04/20 13:21:51;;;;;;;0.30;0.30;;;;;;;20.13;30.85;101485.97;10505372;28;20048;-76
2022/04/20 13:32:14;;;;;;;0.17;0.10;;;;;;;18.67;32.75;101491.34;10515724;28;20040;-74
2022/04/20 13:37:16;;;;;;;0.00;0.00;;;;;;;20.15;33.88;101480.72;10527581;28;20076;-77
2022/04/20 13:42:19;;;;;;;0.30;0.30;;;;;;;18.79;34.58;101481.78;10505752;28;20040;-74
2022/04/20 13:47:22;;;;;;;0.00;0.00;;;;;;;19.54;34.82;101480.03;10510673;28;20128;-75
2022/04/20 13:52:24;;;;;;;0.00;0.00;;;;;;;18.90;35.05;101485.28;10509745;28;20561;-74
2022/04/20 13:57:26;;;;;;;0.00;0.00;;;;;;;19.06;36.66;101473.13;10508619;28;20040;-74
2022/04/20 14:02:28;;;;;;;0.00;0.00;;;;;;;18.25;34.54;101472.13;10511640;28;20380;-75
2022/04/20 14:07:30;;;;;;;0.40;0.30;;;;;;;18.95;34.54;101475.72;10513906;28;20067;-74
2022/04/20 14:12:32;;;;;;;0.00;0.00;;;;;;;18.64;34.66;101470.47;10523679;28;20080;-75
2022/04/20 14:17:34;;;;;;;0.50;0.25;;;;;;;18.53;36.14;101478.28;10524164;28;20056;-75
2022/04/20 14:22:36;;;;;;;0.20;0.20;;;;;;;18.60;34.79;101468.72;10516355;28;20044;-74
2022/04/20 14:33:07;;;;;;;0.10;0.10;;;;;;;18.59;37.00;101459.13;10522920;28;20072;-74
2022/04/20 14:38:11;;;;;;;0.47;0.43;;;;;;;18.62;36.46;101461.75;10525398;28;20072;-74
2022/04/20 14:43:13;;;;;;;0.00;0.00;;;;;;;18.86;35.89;101454.81;10519702;28;20393;-74
2022/04/20 14:48:14;;;;;;;0.00;0.00;;;;;;;18.60;36.75;101452.19;10526201;28;20262;-75
2022/04/20 14:53:16;;;;;;;0.05;0.03;;;;;;;18.41;35.00;101435.63;10530693;28;20486;-76
2022/04/20 14:58:18;;;;;;;2.15;1.95;;;;;;;18.41;35.64;101446.06;10516693;28;20130;-74
2022/04/20 15:03:19;;;;;;;0.03;0.03;;;;;;;18.05;35.59;101446.84;10525139;28;20388;-75
2022/04/20 15:08:22;;;;;;;0.00;0.00;;;;;;;18.57;34.95;101442.63;10507041;28;20102;-74
2022/04/20 15:13:25;;;;;;;0.08;0.08;;;;;;;18.45;36.36;101440.88;10493451;28;20080;-73
2022/04/20 15:18:32;;;;;;;0.00;0.00;;;;;;;18.42;35.47;101437.38;10495164;28;20056;-74
2022/04/20 15:23:34;;;;;;;0.00;0.00;;;;;;;18.54;35.36;101432.16;10493240;28;20479;-76
2022/04/20 15:28:37;;;;;;;0.85;0.13;;;;;;;18.58;34.92;101428.69;10494389;28;20052;-77
2022/04/20 15:33:39;;;;;;;0.00;0.00;;;;;;;18.54;35.51;101429.56;10492696;28;20446;-76
2022/04/20 15:38:41;;;;;;;0.57;0.20;;;;;;;18.44;35.87;101427.78;10493761;28;20068;-74
2022/04/20 15:43:42;;;;;;;0.63;0.43;;;;;;;18.60;36.21;101421.72;10492139;28;20820;-75
2022/04/20 15:48:44;;;;;;;0.00;0.00;;;;;;;18.54;36.44;101422.59;10506699;28;20040;-74
2022/04/20 15:53:45;;;;;;;0.30;0.30;;;;;;;18.54;36.38;101419.13;10524156;28;20066;-73
2022/04/20 16:04:07;;;;;;;0.28;0.10;;;;;;;18.41;37.03;101420.84;10519701;28;20040;-77
2022/04/20 16:09:09;;;;;;;0.00;0.00;;;;;;;18.30;35.96;101413.00;10520932;28;20052;-74
2022/04/20 16:14:10;;;;;;;0.30;0.30;;;;;;;17.85;36.69;101411.97;10517520;28;20063;-75
2022/04/20 16:19:12;;;;;;;0.00;0.00;;;;;;;18.26;36.17;101408.66;10514970;28;20156;-74
2022/04/20 16:24:14;;;;;;;0.08;0.08;;;;;;;18.02;37.07;101402.50;10518861;28;20054;-75
2022/04/20 16:29:16;;;;;;;0.10;0.10;;;;;;;17.96;37.49;101399.88;10513117;28;20457;-73
2022/04/20 16:34:17;;;;;;;0.70;0.15;;;;;;;17.84;36.75;101397.19;10525404;28;20450;-78
2022/04/20 16:39:22;;;;;;;0.10;0.10;;;;;;;18.00;36.93;101403.38;10512034;28;20059;-75
2022/04/20 16:44:24;;;;;;;0.00;0.00;;;;;;;17.90;35.71;101392.03;10501289;28;20127;-75
2022/04/20 16:49:26;;;;;;;0.00;0.00;;;;;;;17.90;35.54;101386.81;10523479;28;20059;-75
2022/04/20 16:54:29;;;;;;;0.00;0.00;;;;;;;18.13;34.17;101389.50;10511468;28;20195;-76
2022/04/20 16:59:31;;;;;;;0.05;0.05;;;;;;;17.62;34.08;101388.44;10522771;28;20040;-76
2022/04/20 17:04:35;;;;;;;0.20;0.15;;;;;;;17.57;34.97;101388.41;10514850;28;20036;-74
2022/04/20 17:09:38;;;;;;;0.00;0.00;;;;;;;17.82;35.35;101380.69;10506775;28;20488;-75
2022/04/20 17:14:39;;;;;;;0.00;0.00;;;;;;;17.50;34.92;101379.69;10526539;28;20040;-77
2022/04/20 17:19:41;;;;;;;0.65;0.30;;;;;;;17.34;36.43;101391.75;10519000;28;20043;-77
2022/04/20 17:26:33;;;;;;;0.00;0.00;;;;;;;17.55;37.70;101384.91;10522415;28;20062;-77
2022/04/20 17:30:19;;;;;;;0.00;0.00;;;;;;;17.39;37.12;101386.56;10526988;28;20054;-77
2022/04/20 17:40:44;;;;;;;0.00;0.00;;;;;;;17.05;38.16;101397.66;10522366;28;20567;-78
2022/04/20 17:45:46;;;;;;;0.00;0.00;;;;;;;16.98;39.40;101405.44;10528319;28;20470;-75
2022/04/20 17:50:48;;;;;;;0.00;0.00;;;;;;;16.63;38.87;101407.69;10543750;28;20051;-76
2022/04/20 17:55:49;;;;;;;0.00;0.00;;;;;;;16.54;40.99;101410.22;10503586;28;20131;-77
2022/04/20 18:00:52;;;;;;;0.00;0.00;;;;;;;16.28;41.39;101410.84;10526645;28;20052;-76
2022/04/20 18:05:54;;;;;;;0.00;0.00;;;;;;;16.21;42.50;101414.22;10522073;28;20051;-76
2022/04/20 18:10:56;;;;;;;0.00;0.00;;;;;;;15.92;43.12;101417.38;10520846;28;20087;-76
2022/04/20 18:15:57;;;;;;;0.17;0.15;;;;;;;15.62;43.70;101417.81;10505089;28;20052;-76
2022/04/20 18:21:00;;;;;;;0.10;0.10;;;;;;;15.18;44.62;101416.34;10525250;28;20044;-76
2022/04/20 18:26:01;;;;;;;0.00;0.00;;;;;;;15.09;44.92;101422.25;10517022;28;20171;-77
2022/04/20 18:31:04;;;;;;;0.00;0.00;;;;;;;13.42;47.99;101430.31;10527336;28;20112;-77
2022/04/20 18:36:08;;;;;;;0.00;0.00;;;;;;;12.70;50.94;101438.03;10524577;28;20036;-78
2022/04/20 18:41:10;;;;;;;0.00;0.00;;;;;;;12.52;51.77;101437.56;10488137;28;20124;-78
2022/04/20 18:46:12;;;;;;;0.00;0.00;;;;;;;12.35;52.06;101435.41;10499644;28;20076;-78
2022/04/20 18:51:13;;;;;;;0.00;0.00;;;;;;;12.37;51.54;101438.91;10509896;28;20135;-78
2022/04/20 19:01:37;;;;;;;0.00;0.00;;;;;;;12.22;52.09;101448.84;10512037;28;20048;-78
2022/04/20 19:06:38;;;;;;;0.00;0.00;;;;;;;11.88;54.74;101453.88;10473569;28;20663;-78
2022/04/20 19:11:40;;;;;;;0.00;0.00;;;;;;;11.81;54.32;101458.78;10497055;28;20434;-78
2022/04/20 19:16:42;;;;;;;0.00;0.00;;;;;;;11.65;56.32;101465.22;10512532;28;20056;-78
2022/04/20 19:21:43;;;;;;;0.00;0.00;;;;;;;11.25;58.78;101465.72;10512089;28;20044;-78
2022/04/20 19:26:45;;;;;;;0.00;0.00;;;;;;;11.48;57.00;101472.44;10496697;28;20044;-78
2022/04/20 19:31:47;;;;;;;0.00;0.00;;;;;;;11.10;58.95;101476.41;10494059;28;20068;-78
2022/04/20 19:36:50;;;;;;;0.10;0.10;;;;;;;10.89;61.55;101470.56;10496520;28;20052;-78
2022/04/20 19:41:53;;;;;;;0.52;0.52;;;;;;;10.72;61.01;101473.41;10495892;28;20040;-78
2022/04/20 19:46:55;;;;;;;0.00;0.00;;;;;;;10.74;59.64;101476.94;10496010;28;20508;-78
2022/04/20 19:51:58;;;;;;;0.00;0.00;;;;;;;10.93;59.03;101472.41;10465300;28;20164;-78
2022/04/20 19:56:59;;;;;;;0.00;0.00;;;;;;;11.09;56.87;101479.81;10484734;28;20075;-78
2022/04/20 20:02:02;;;;;;;0.00;0.00;;;;;;;11.14;55.47;101481.66;10495377;28;20032;-78
2022/04/20 20:07:04;;;;;;;0.00;0.00;;;;;;;11.03;56.30;101484.78;10496063;28;20080;-78
2022/04/20 20:12:06;;;;;;;0.00;0.00;;;;;;;10.92;56.60;101473.22;10510621;28;20451;-78
2022/04/20 20:17:07;;;;;;;0.00;0.00;;;;;;;10.25;59.92;101476.03;10493285;28;20107;-78
2022/04/20 20:22:09;;;;;;;0.00;0.00;;;;;;;10.08;64.26;101483.16;10492774;28;20125;-78
2022/04/20 20:32:34;;;;;;;;;;;;;;;10.03;61.31;101471.78;10494268;28;20487;-78
2022/04/20 20:37:36;;;;;;;0.00;0.00;;;;;;;10.03;60.49;101469.22;10493273;28;19924;-77
2022/04/20 20:42:38;;;;;;;0.00;0.00;;;;;;;9.81;60.35;101470.97;10492435;28;20407;-77
2022/04/20 20:47:40;;;;;;;0.00;0.00;;;;;;;10.29;57.17;101475.31;10493494;28;20506;-76
2022/04/20 20:52:41;;;;;;;0.00;0.00;;;;;;;10.44;56.07;101472.47;10474402;28;20569;-77
2022/04/20 20:57:43;;;;;;;0.00;0.00;;;;;;;10.38;56.38;101469.69;10511108;28;20048;-78
2022/04/20 21:02:45;;;;;;;0.00;0.00;;;;;;;10.63;54.47;101462.78;10511581;28;20049;-77
2022/04/20 21:07:49;;;;;;;0.00;0.00;;;;;;;10.50;55.67;101466.63;10498341;28;20044;-77
2022/04/20 21:12:50;;;;;;;0.00;0.00;;;;;;;10.57;54.36;101472.88;10492567;28;20044;-78
2022/04/20 21:17:52;;;;;;;2.17;2.08;;;;;;;10.23;57.43;101466.50;10491261;28;20079;-78
2022/04/20 21:22:53;;;;;;;0.00;0.00;;;;;;;10.25;56.32;101475.16;10491982;28;20040;-78
2022/04/20 21:27:57;;;;;;;0.08;0.08;;;;;;;10.35;54.53;101476.38;10491295;28;20044;-78
2022/04/20 21:33:01;;;;;;;0.00;0.00;;;;;;;10.20;55.03;101471.53;10507911;28;20044;-77
2022/04/20 21:38:03;;;;;;;0.03;0.03;;;;;;;10.34;54.31;101472.91;10507648;28;20055;-78
2022/04/20 21:43:05;;;;;;;0.00;0.00;;;;;;;10.10;55.59;101481.50;10492355;28;20036;-78
2022/04/20 21:48:07;;;;;;;2.20;2.00;;;;;;;13.02;47.34;101466.44;10490754;28;20048;-78
2022/04/20 21:53:09;;;;;;;91.10;17.33;;;;;;;10.11;53.64;101464.38;10491910;28;20068;-77
2022/04/20 21:58:12;;;;;;;0.00;0.00;;;;;;;10.05;54.08;101477.88;10511095;28;20372;-77
2022/04/20 22:08:44;;;;;;;0.00;0.00;;;;;;;10.03;53.32;101479.50;10511691;28;20505;-78
2022/04/20 22:13:48;;;;;;;0.00;0.00;;;;;;;9.91;53.80;101479.06;10531767;28;20484;-78
2022/04/20 22:18:50;;;;;;;0.00;0.00;;;;;;;9.49;55.84;101480.88;10533541;28;20055;-78
2022/04/20 22:23:51;;;;;;;0.75;0.75;;;;;;;9.38;55.44;101491.59;10531085;28;20545;-77
2022/04/20 22:28:53;;;;;;;0.00;0.00;;;;;;;9.17;56.25;101483.06;10533513;28;20051;-77
2022/04/20 22:33:55;;;;;;;0.00;0.00;;;;;;;9.43;55.12;101478.06;10534425;28;20068;-78
2022/04/20 22:38:59;;;;;;;0.00;0.00;;;;;;;9.36;54.96;101473.50;10556483;28;20510;-78
2022/04/20 22:44:01;;;;;;;0.00;0.00;;;;;;;9.24;55.16;101478.16;10540642;28;20075;-78
2022/04/20 22:49:03;;;;;;;0.00;0.00;;;;;;;9.21;55.83;101482.38;10541767;28;20093;-78
2022/04/20 22:54:08;;;;;;;0.00;0.00;;;;;;;9.28;54.46;101478.34;10514448;28;20557;-78
2022/04/20 22:59:10;;;;;;;0.00;0.00;;;;;;;8.97;56.68;101471.97;10498937;28;20051;-78
2022/04/20 23:04:12;;;;;;;12.82;0.75;;;;;;;8.93;56.26;101480.38;10496968;28;20075;-78
2022/04/20 23:09:13;;;;;;;0.00;0.00;;;;;;;9.08;54.28;101480.09;10497850;28;20139;-77
2022/04/20 23:14:15;;;;;;;0.00;0.00;;;;;;;8.88;55.25;101480.16;10497588;28;20068;-77
2022/04/20 23:19:46;;;;;;;0.43;0.43;;;;;;;8.74;57.09;101476.13;10497245;28;20048;-77
2022/04/20 23:30:08;;;;;;;0.00;0.00;;;;;;;8.96;54.29;101461.63;10497170;28;20080;-78
2022/04/20 23:35:09;;;;;;;0.00;0.00;;;;;;;8.99;54.31;101469.44;10496551;28;20428;-77
2022/04/20 23:40:11;;;;;;;1.75;0.55;;;;;;;9.07;53.19;101465.50;10496309;28;20144;-77
2022/04/20 23:45:13;;;;;;;0.00;0.00;;;;;;;9.12;52.58;101456.28;10496872;28;20128;-77
2022/04/20 23:50:26;;;;;;;0.10;0.10;;;;;;;9.00;52.79;101463.50;10496502;28;20052;-77
2022/04/20 23:55:28;;;;;;;0.00;0.00;;;;;;;9.11;52.72;101467.41;10493895;28;20047;-78
